Weather observations for the past three days for
Sarasota / Bradenton, Sarasota-Bradenton International Airport
Imperial (Metric)
Date Time (edt) Wind (mph) Vis. (mi.) Weather Sky Cond. Temperature (ºF) Relative Humidity Wind Chill (°F) Heat Index (°F) Pressure Precipitation (in)
Air Dwpt 6 hour altimeter (in) sea level (mb) 1 hr 3 hr 6 hr
Max. Min.
07 15:53 W 12 10.00 Fair CLR 82.9 72 70% 88 29.98 1015.0
07 14:53 SW 10 10.00 Fair CLR 82.9 72 70% 88 30 1015.7
07 13:53 SW 10 G 20 10.00 Fair CLR 82.9 72 84 73 70% 88 30.02 1016.5
07 12:53 SW 12 10.00 Fair CLR 82 72 72% 87 30.03 1016.8
07 11:53 SW 13 10.00 Fair CLR 82 72 72% 87 30.04 1017.1
07 10:53 S 12 10.00 Fair CLR 82 71.1 69% 86 30.04 1017.0
07 09:53 SW 12 10.00 Fair CLR 80.1 70 71% 83 30.03 1016.8
07 08:53 S 8 10.00 Fair CLR 78.1 72 82% 80 30.02 1016.3
07 07:53 S 6 10.00 Fair CLR 73 70 75 71.1 90% 30 1015.9
07 06:53 SE 3 10.00 Fair CLR 71.1 68 90% 29.99 1015.6
07 05:53 SE 3 10.00 Fair CLR 72 69.1 91% 29.98 1015.2
07 04:53 S 3 10.00 Fair CLR 73 70 90% 29.97 1014.8
07 03:53 E 3 10.00 Fair CLR 73.9 71.1 91% 29.96 1014.4
07 02:53 E 5 10.00 Fair CLR 75 72 90% 74 29.97 1014.8
07 01:53 E 3 10.00 Fair CLR 75 72 79 75 90% 74 30 1015.7
07 00:53 NE 3 10.00 Fair CLR 75.9 72 88% 76 30.02 1016.3
06 23:53 Calm 10.00 Fair CLR 75.9 72 88% 76 30.01 1016.1
06 22:53 N 3 10.00 Fair CLR 75.9 72 88% 76 30 1015.9
06 21:53 W 6 10.00 Fair CLR 77 73 88% 78 30 1015.8
06 20:53 W 7 10.00 Fair CLR 77 72 85% 78 30 1015.6
06 19:53 W 9 10.00 Fair CLR 79 72 84 79 79% 82 30 1015.8
06 18:53 W 9 10.00 Fair CLR 80.1 72 76% 84 30 1015.7
06 17:53 SW 10 10.00 Fair CLR 82 71.1 69% 86 29.99 1015.6
06 16:53 SW 12 10.00 Fair CLR 82 73 74% 87 30 1015.6
06 15:53 SW 12 10.00 Fair CLR 82.9 73 72% 89 30 1015.8
06 14:53 SW 14 G 22 10.00 Fair CLR 82.9 73 72% 89 30.01 1016.2
06 13:53 SW 13 10.00 Fair CLR 84 73 87.1 71.1 70% 90 30.03 1016.9
06 12:53 SW 14 10.00 Fair CLR 84 73 70% 90 30.04 1017.2
06 11:53 S 14 10.00 A Few Clouds FEW029 FEW034 84.9 72 65% 91 30.04 1017.3
06 10:53 SE 10 10.00 Fair CLR 84 70 63% 88 30.04 1017.0
06 09:53 SE 10 10.00 Fair CLR 82 70 67% 86 30.03 1017.0
06 08:53 SE 10 10.00 Fair CLR 77 70 79% 79 30.02 1016.6
06 07:53 SE 7 10.00 Fair CLR 71.1 68 73.9 70 90% 30.02 1016.3
06 06:53 E 5 10.00 Fair CLR 70 66.9 90% 30 1015.7
06 05:53 E 6 10.00 Fair CLR 70 66.9 90% 29.99 1015.4
06 04:53 E 6 10.00 Fair CLR 71.1 66.9 87% 29.98 1015.2
06 03:53 SE 7 10.00 Fair CLR 72 66.9 84% 29.98 1015.2
06 02:53 E 7 10.00 Fair CLR 73 66 79% 30 1015.6
06 01:53 E 7 10.00 Fair CLR 73.9 66 78.1 73.9 76% 30 1015.8
06 00:53 E 7 10.00 Fair CLR 75.9 64.9 69% 78 30.02 1016.5
05 23:53 E 7 10.00 Overcast OVC036 77 66.9 71% 79 30.01 1016.2
05 22:53 E 3 10.00 Fair CLR 75.9 68 77% 77 30.01 1016.1
05 21:53 N 6 10.00 A Few Clouds FEW060 75.9 69.1 79% 77 30 1015.7
05 20:53 NW 5 10.00 Fair CLR 77 69.1 77% 79 29.98 1015.0
05 19:53 NW 9 10.00 Fair CLR 78.1 68 84.9 78.1 71% 80 29.96 1014.6
05 18:53 NW 10 10.00 Fair CLR 81 69.1 67% 84 29.96 1014.4
05 17:53 W 13 10.00 Fair CLR 81 69.1 67% 84 29.96 1014.4
05 16:53 W 14 10.00 Fair CLR 82 69.1 65% 85 29.96 1014.3
05 15:53 W 16 10.00 Fair CLR 84 69.1 61% 88 29.97 1014.7
05 14:53 W 13 10.00 Fair CLR 82.9 69.1 63% 87 29.97 1014.8
05 13:53 W 10 10.00 A Few Clouds FEW055 FEW070 84 68 86 72 59% 87 29.99 1015.3
05 12:53 E 5 10.00 Partly Cloudy FEW045 SCT055 84.9 64 50% 86 30 1015.8
05 11:53 SE 8 10.00 Mostly Cloudy BKN036 82.9 66 57% 85 30.01 1016.0
05 10:53 E 8 10.00 Fair CLR 81 64.9 58% 83 30.01 1016.2
05 09:53 E 12 10.00 Fair CLR 78.1 64 62% 80 29.99 1015.6
05 08:53 E 8 10.00 Fair CLR 75.9 64.9 69% 78 29.99 1015.4
05 07:53 E 7 10.00 Fair CLR 72 64 72 68 76% 29.98 1015.2
05 06:53 E 6 10.00 Fair CLR 68 63 84% 29.96 1014.5
05 05:53 E 6 10.00 Fair CLR 69.1 63 81% 29.95 1014.2
05 04:53 E 7 10.00 Fair CLR 69.1 63 81% 29.94 1013.8
05 03:53 E 8 10.00 Fair CLR 70 63 79% 29.94 1013.9
05 02:53 E 7 10.00 Fair CLR 70 63 79% 29.95 1014.0
05 01:53 E 7 10.00 Mostly Cloudy SCT047 BKN060 BKN075 72 63 81 72 73% 29.98 1015.1
05 00:53 E 8 10.00 A Few Clouds FEW050 73 63 71% 29.98 1015.1
04 23:53 E 9 10.00 Fair CLR 73 63 71% 29.99 1015.5
04 22:53 E 7 10.00 Mostly Cloudy BKN055 75 63 66% 77 30 1015.8
04 21:53 E 13 G 20 10.00 Overcast SCT046 OVC065 77 63 62% 79 29.98 1015.2
04 20:53 E 12 G 23 10.00 Partly Cloudy SCT055 SCT100 79 63 58% 81 29.96 1014.3
04 19:53 E 10 10.00 Mostly Cloudy BKN060 BKN090 81 62.1 87.1 81 53% 82 29.93 1013.4
04 18:53 E 5 10.00 Fair CLR 84 60.1 44% 84 29.92 1013.0
04 17:53 Vrbl 6 10.00 A Few Clouds FEW055 86 60.1 42% 86 29.92 1013.2
04 16:53 Vrbl 7 10.00 Fair CLR 86 57.9 39% 85 29.93 1013.3
Date Time (edt) Wind (mph) Vis. (mi.) Weather Sky Cond. Air Dwpt Max. Min. Relative Humidity Wind Chill (°F) Heat Index (°F) altimeter (in) sea level (mb) 1 hr 3 hr 6 hr
6 hour
Temperature (ºF) Pressure Precipitation (in)